sensor_id;sensor_type;location;lat;lon;timestamp;temperature;humidity
26408;DHT22;14583;43.604;1.364;2023-02-23T00:01:23;11.60;99.90
26408;DHT22;14583;43.604;1.364;2023-02-23T00:03:50;11.60;99.90
26408;DHT22;14583;43.604;1.364;2023-02-23T00:06:17;11.60;99.90
26408;DHT22;14583;43.604;1.364;2023-02-23T00:08:43;11.60;99.90
26408;DHT22;14583;43.604;1.364;2023-02-23T00:11:10;11.70;99.90
26408;DHT22;14583;43.604;1.364;2023-02-23T00:13:37;11.70;99.90
26408;DHT22;14583;43.604;1.364;2023-02-23T00:16:05;11.80;99.90
26408;DHT22;14583;43.604;1.364;2023-02-23T00:18:31;11.70;99.90
26408;DHT22;14583;43.604;1.364;2023-02-23T00:23:42;11.60;99.90
26408;DHT22;14583;43.604;1.364;2023-02-23T00:26:08;11.60;99.90
26408;DHT22;14583;43.604;1.364;2023-02-23T00:28:33;11.70;99.90
26408;DHT22;14583;43.604;1.364;2023-02-23T00:31:01;11.70;99.90
26408;DHT22;14583;43.604;1.364;2023-02-23T00:33:28;11.70;99.90
26408;DHT22;14583;43.604;1.364;2023-02-23T00:35:55;11.60;99.90
26408;DHT22;14583;43.604;1.364;2023-02-23T00:38:20;11.60;99.90
26408;DHT22;14583;43.604;1.364;2023-02-23T00:40:46;11.60;99.90
26408;DHT22;14583;43.604;1.364;2023-02-23T00:43:12;11.60;99.90
26408;DHT22;14583;43.604;1.364;2023-02-23T00:45:39;11.50;99.90
26408;DHT22;14583;43.604;1.364;2023-02-23T00:48:05;11.40;99.90
26408;DHT22;14583;43.604;1.364;2023-02-23T00:50:35;11.50;99.90
26408;DHT22;14583;43.604;1.364;2023-02-23T00:53:03;11.60;99.90
26408;DHT22;14583;43.604;1.364;2023-02-23T00:55:29;11.60;99.90
26408;DHT22;14583;43.604;1.364;2023-02-23T00:57:55;11.50;99.90
26408;DHT22;14583;43.604;1.364;2023-02-23T01:00:22;11.50;99.90
26408;DHT22;14583;43.604;1.364;2023-02-23T01:02:50;11.50;99.90
26408;DHT22;14583;43.604;1.364;2023-02-23T01:05:16;11.50;99.90
26408;DHT22;14583;43.604;1.364;2023-02-23T01:07:42;11.50;99.90
26408;DHT22;14583;43.604;1.364;2023-02-23T01:10:11;11.50;99.90
26408;DHT22;14583;43.604;1.364;2023-02-23T01:12:50;11.60;99.90
26408;DHT22;14583;43.604;1.364;2023-02-23T01:15:17;11.50;99.90
26408;DHT22;14583;43.604;1.364;2023-02-23T01:17:44;11.50;99.90
26408;DHT22;14583;43.604;1.364;2023-02-23T01:20:15;11.50;99.90
26408;DHT22;14583;43.604;1.364;2023-02-23T01:22:48;11.50;99.90
26408;DHT22;14583;43.604;1.364;2023-02-23T01:25:15;11.40;99.90
26408;DHT22;14583;43.604;1.364;2023-02-23T01:27:42;11.50;99.90
26408;DHT22;14583;43.604;1.364;2023-02-23T01:30:14;11.50;99.90
26408;DHT22;14583;43.604;1.364;2023-02-23T01:32:40;11.40;99.90
26408;DHT22;14583;43.604;1.364;2023-02-23T01:35:10;11.40;99.90
26408;DHT22;14583;43.604;1.364;2023-02-23T01:37:39;11.40;99.90
26408;DHT22;14583;43.604;1.364;2023-02-23T01:40:07;11.40;99.90
26408;DHT22;14583;43.604;1.364;2023-02-23T01:42:41;11.40;99.90
26408;DHT22;14583;43.604;1.364;2023-02-23T01:45:27;11.30;99.90
26408;DHT22;14583;43.604;1.364;2023-02-23T01:47:59;11.20;99.90
26408;DHT22;14583;43.604;1.364;2023-02-23T01:50:31;11.20;99.90
26408;DHT22;14583;43.604;1.364;2023-02-23T01:53:00;11.20;99.90
26408;DHT22;14583;43.604;1.364;2023-02-23T01:55:26;11.20;99.90
26408;DHT22;14583;43.604;1.364;2023-02-23T01:58:00;11.10;99.90
26408;DHT22;14583;43.604;1.364;2023-02-23T02:00:28;11.10;99.90
26408;DHT22;14583;43.604;1.364;2023-02-23T02:02:56;11.10;99.90
26408;DHT22;14583;43.604;1.364;2023-02-23T02:05:23;11.10;99.90
26408;DHT22;14583;43.604;1.364;2023-02-23T02:07:50;11.00;99.90
26408;DHT22;14583;43.604;1.364;2023-02-23T02:10:25;11.00;99.90
26408;DHT22;14583;43.604;1.364;2023-02-23T02:13:12;11.10;99.90
26408;DHT22;14583;43.604;1.364;2023-02-23T02:15:52;11.10;99.90
26408;DHT22;14583;43.604;1.364;2023-02-23T02:25:21;11.00;99.90
26408;DHT22;14583;43.604;1.364;2023-02-23T02:27:55;11.00;99.90
26408;DHT22;14583;43.604;1.364;2023-02-23T02:42:47;11.00;99.90
26408;DHT22;14583;43.604;1.364;2023-02-23T02:45:29;10.90;99.90
26408;DHT22;14583;43.604;1.364;2023-02-23T02:56:02;10.80;99.90
26408;DHT22;14583;43.604;1.364;2023-02-23T02:58:30;10.80;99.90
26408;DHT22;14583;43.604;1.364;2023-02-23T03:01:06;10.90;99.90
26408;DHT22;14583;43.604;1.364;2023-02-23T03:03:51;11.00;99.90
26408;DHT22;14583;43.604;1.364;2023-02-23T03:06:50;10.90;99.90
26408;DHT22;14583;43.604;1.364;2023-02-23T03:16:31;10.70;99.90
26408;DHT22;14583;43.604;1.364;2023-02-23T03:24:48;10.70;99.90
26408;DHT22;14583;43.604;1.364;2023-02-23T03:30:36;10.50;99.90
26408;DHT22;14583;43.604;1.364;2023-02-23T03:36:54;10.50;99.90
26408;DHT22;14583;43.604;1.364;2023-02-23T03:39:47;10.50;99.90
26408;DHT22;14583;43.604;1.364;2023-02-23T03:42:36;10.50;99.90
26408;DHT22;14583;43.604;1.364;2023-02-23T03:45:23;10.50;99.90
26408;DHT22;14583;43.604;1.364;2023-02-23T03:48:11;10.50;99.90
26408;DHT22;14583;43.604;1.364;2023-02-23T03:51:00;10.40;99.90
26408;DHT22;14583;43.604;1.364;2023-02-23T03:54:04;10.50;99.90
26408;DHT22;14583;43.604;1.364;2023-02-23T03:56:54;10.40;99.90
26408;DHT22;14583;43.604;1.364;2023-02-23T03:59:44;10.40;99.90
26408;DHT22;14583;43.604;1.364;2023-02-23T04:02:33;10.40;99.90
26408;DHT22;14583;43.604;1.364;2023-02-23T04:05:19;10.40;99.90
26408;DHT22;14583;43.604;1.364;2023-02-23T04:08:06;10.30;99.90
26408;DHT22;14583;43.604;1.364;2023-02-23T04:11:02;10.30;99.90
26408;DHT22;14583;43.604;1.364;2023-02-23T04:13:55;10.30;99.90
26408;DHT22;14583;43.604;1.364;2023-02-23T04:16:22;10.30;99.90
26408;DHT22;14583;43.604;1.364;2023-02-23T04:18:48;10.40;99.90
26408;DHT22;14583;43.604;1.364;2023-02-23T04:21:14;10.30;99.90
26408;DHT22;14583;43.604;1.364;2023-02-23T04:23:41;10.40;99.90
26408;DHT22;14583;43.604;1.364;2023-02-23T04:26:06;10.30;99.90
26408;DHT22;14583;43.604;1.364;2023-02-23T04:28:33;10.20;99.90
26408;DHT22;14583;43.604;1.364;2023-02-23T04:30:59;10.20;99.90
26408;DHT22;14583;43.604;1.364;2023-02-23T04:33:25;10.20;99.90
26408;DHT22;14583;43.604;1.364;2023-02-23T04:35:54;10.20;99.90
26408;DHT22;14583;43.604;1.364;2023-02-23T04:38:21;10.20;99.90
26408;DHT22;14583;43.604;1.364;2023-02-23T04:40:46;10.30;99.90
26408;DHT22;14583;43.604;1.364;2023-02-23T04:43:13;10.50;99.90
26408;DHT22;14583;43.604;1.364;2023-02-23T04:45:39;10.50;99.90
26408;DHT22;14583;43.604;1.364;2023-02-23T04:48:05;10.50;99.90
26408;DHT22;14583;43.604;1.364;2023-02-23T04:50:30;10.40;99.90
26408;DHT22;14583;43.604;1.364;2023-02-23T04:52:56;10.40;99.90
26408;DHT22;14583;43.604;1.364;2023-02-23T04:55:23;10.30;99.90
26408;DHT22;14583;43.604;1.364;2023-02-23T04:57:50;10.30;99.90
26408;DHT22;14583;43.604;1.364;2023-02-23T05:00:17;10.40;99.90
26408;DHT22;14583;43.604;1.364;2023-02-23T05:02:43;10.40;99.90
26408;DHT22;14583;43.604;1.364;2023-02-23T05:05:10;10.40;99.90
26408;DHT22;14583;43.604;1.364;2023-02-23T05:07:37;10.30;99.90
26408;DHT22;14583;43.604;1.364;2023-02-23T05:10:04;10.30;99.90
26408;DHT22;14583;43.604;1.364;2023-02-23T05:12:30;10.30;99.90
26408;DHT22;14583;43.604;1.364;2023-02-23T05:14:57;10.30;99.90
26408;DHT22;14583;43.604;1.364;2023-02-23T05:17:23;10.30;99.90
26408;DHT22;14583;43.604;1.364;2023-02-23T05:19:48;10.20;99.90
26408;DHT22;14583;43.604;1.364;2023-02-23T05:22:14;10.20;99.90
26408;DHT22;14583;43.604;1.364;2023-02-23T05:24:40;10.20;99.90
26408;DHT22;14583;43.604;1.364;2023-02-23T05:27:07;10.10;99.90
26408;DHT22;14583;43.604;1.364;2023-02-23T05:29:34;10.00;99.90
26408;DHT22;14583;43.604;1.364;2023-02-23T05:31:59;10.10;99.90
26408;DHT22;14583;43.604;1.364;2023-02-23T05:34:25;10.10;99.90
26408;DHT22;14583;43.604;1.364;2023-02-23T05:36:51;10.10;99.90
26408;DHT22;14583;43.604;1.364;2023-02-23T05:39:19;10.10;99.90
26408;DHT22;14583;43.604;1.364;2023-02-23T05:41:44;10.20;99.90
26408;DHT22;14583;43.604;1.364;2023-02-23T05:44:10;10.20;99.90
26408;DHT22;14583;43.604;1.364;2023-02-23T05:46:36;10.20;99.90
26408;DHT22;14583;43.604;1.364;2023-02-23T05:49:02;10.10;99.90
26408;DHT22;14583;43.604;1.364;2023-02-23T05:51:30;10.10;99.90
26408;DHT22;14583;43.604;1.364;2023-02-23T05:53:56;10.00;99.90
26408;DHT22;14583;43.604;1.364;2023-02-23T05:56:22;10.10;99.90
26408;DHT22;14583;43.604;1.364;2023-02-23T05:58:49;10.10;99.90
26408;DHT22;14583;43.604;1.364;2023-02-23T06:01:16;10.10;99.90
26408;DHT22;14583;43.604;1.364;2023-02-23T06:03:43;10.10;99.90
26408;DHT22;14583;43.604;1.364;2023-02-23T06:06:09;10.10;99.90
26408;DHT22;14583;43.604;1.364;2023-02-23T06:08:35;10.10;99.90
26408;DHT22;14583;43.604;1.364;2023-02-23T06:11:01;10.20;99.90
26408;DHT22;14583;43.604;1.364;2023-02-23T06:13:28;10.20;99.90
26408;DHT22;14583;43.604;1.364;2023-02-23T06:15:54;10.10;99.90
26408;DHT22;14583;43.604;1.364;2023-02-23T06:18:19;10.10;99.90
26408;DHT22;14583;43.604;1.364;2023-02-23T06:20:46;10.10;99.90
26408;DHT22;14583;43.604;1.364;2023-02-23T06:23:12;10.10;99.90
26408;DHT22;14583;43.604;1.364;2023-02-23T06:25:40;10.20;99.90
26408;DHT22;14583;43.604;1.364;2023-02-23T06:28:07;10.20;99.90
26408;DHT22;14583;43.604;1.364;2023-02-23T06:30:34;10.00;99.90
26408;DHT22;14583;43.604;1.364;2023-02-23T06:32:59;10.10;99.90
26408;DHT22;14583;43.604;1.364;2023-02-23T06:35:25;9.90;99.90
26408;DHT22;14583;43.604;1.364;2023-02-23T06:37:52;9.80;99.90
26408;DHT22;14583;43.604;1.364;2023-02-23T06:40:18;9.70;99.90
26408;DHT22;14583;43.604;1.364;2023-02-23T06:42:44;9.60;99.90
26408;DHT22;14583;43.604;1.364;2023-02-23T06:45:10;9.70;99.90
26408;DHT22;14583;43.604;1.364;2023-02-23T06:47:38;9.80;99.90
26408;DHT22;14583;43.604;1.364;2023-02-23T06:50:05;9.90;99.90
26408;DHT22;14583;43.604;1.364;2023-02-23T06:52:31;9.90;99.90
26408;DHT22;14583;43.604;1.364;2023-02-23T06:54:57;10.00;99.90
26408;DHT22;14583;43.604;1.364;2023-02-23T06:57:23;10.00;99.90
26408;DHT22;14583;43.604;1.364;2023-02-23T06:59:49;10.00;99.90
26408;DHT22;14583;43.604;1.364;2023-02-23T07:02:15;9.90;99.90
26408;DHT22;14583;43.604;1.364;2023-02-23T07:04:40;10.00;99.90
26408;DHT22;14583;43.604;1.364;2023-02-23T07:07:06;10.10;99.90
26408;DHT22;14583;43.604;1.364;2023-02-23T07:09:32;10.10;99.90
26408;DHT22;14583;43.604;1.364;2023-02-23T07:11:58;10.30;99.90
26408;DHT22;14583;43.604;1.364;2023-02-23T07:14:24;10.20;99.90
26408;DHT22;14583;43.604;1.364;2023-02-23T07:16:50;10.20;99.90
26408;DHT22;14583;43.604;1.364;2023-02-23T07:19:15;10.30;99.90
26408;DHT22;14583;43.604;1.364;2023-02-23T07:21:41;10.30;99.90
26408;DHT22;14583;43.604;1.364;2023-02-23T07:24:07;10.40;99.90
26408;DHT22;14583;43.604;1.364;2023-02-23T07:26:33;10.50;99.90
26408;DHT22;14583;43.604;1.364;2023-02-23T07:28:59;10.50;99.90
26408;DHT22;14583;43.604;1.364;2023-02-23T07:31:25;10.40;99.90
26408;DHT22;14583;43.604;1.364;2023-02-23T07:33:54;10.50;99.90
26408;DHT22;14583;43.604;1.364;2023-02-23T07:36:21;10.50;99.90
26408;DHT22;14583;43.604;1.364;2023-02-23T07:38:46;10.60;99.90
26408;DHT22;14583;43.604;1.364;2023-02-23T07:41:12;10.50;99.90
26408;DHT22;14583;43.604;1.364;2023-02-23T07:43:38;10.50;99.90
26408;DHT22;14583;43.604;1.364;2023-02-23T07:46:04;10.50;99.90
26408;DHT22;14583;43.604;1.364;2023-02-23T07:48:29;10.40;99.90
26408;DHT22;14583;43.604;1.364;2023-02-23T07:50:55;10.30;99.90
26408;DHT22;14583;43.604;1.364;2023-02-23T07:53:21;10.30;99.90
26408;DHT22;14583;43.604;1.364;2023-02-23T07:55:57;10.40;99.90
26408;DHT22;14583;43.604;1.364;2023-02-23T07:58:23;10.30;99.90
26408;DHT22;14583;43.604;1.364;2023-02-23T08:00:48;10.40;99.90
26408;DHT22;14583;43.604;1.364;2023-02-23T08:03:14;10.50;99.90
26408;DHT22;14583;43.604;1.364;2023-02-23T08:05:40;10.50;99.90
26408;DHT22;14583;43.604;1.364;2023-02-23T08:08:06;10.40;99.90
26408;DHT22;14583;43.604;1.364;2023-02-23T08:10:31;10.40;99.90
26408;DHT22;14583;43.604;1.364;2023-02-23T08:12:57;10.30;99.90
26408;DHT22;14583;43.604;1.364;2023-02-23T08:15:24;10.30;99.90
26408;DHT22;14583;43.604;1.364;2023-02-23T08:17:49;10.30;99.90
26408;DHT22;14583;43.604;1.364;2023-02-23T08:20:15;10.40;99.90
26408;DHT22;14583;43.604;1.364;2023-02-23T08:22:41;10.50;99.90
26408;DHT22;14583;43.604;1.364;2023-02-23T08:25:08;10.40;99.90
26408;DHT22;14583;43.604;1.364;2023-02-23T08:27:34;10.30;99.90
26408;DHT22;14583;43.604;1.364;2023-02-23T08:30:00;10.30;99.90
26408;DHT22;14583;43.604;1.364;2023-02-23T08:32:30;10.20;99.90
26408;DHT22;14583;43.604;1.364;2023-02-23T08:34:59;10.20;99.90
26408;DHT22;14583;43.604;1.364;2023-02-23T08:37:30;10.20;99.90
26408;DHT22;14583;43.604;1.364;2023-02-23T08:39:56;10.20;99.90
26408;DHT22;14583;43.604;1.364;2023-02-23T08:42:21;10.30;99.90
26408;DHT22;14583;43.604;1.364;2023-02-23T08:44:47;10.20;99.90
26408;DHT22;14583;43.604;1.364;2023-02-23T08:47:14;10.30;99.90
26408;DHT22;14583;43.604;1.364;2023-02-23T08:49:41;10.30;99.90
26408;DHT22;14583;43.604;1.364;2023-02-23T08:52:07;10.30;99.90
26408;DHT22;14583;43.604;1.364;2023-02-23T08:54:33;10.20;99.90
26408;DHT22;14583;43.604;1.364;2023-02-23T08:56:58;10.30;99.90
26408;DHT22;14583;43.604;1.364;2023-02-23T08:59:24;10.30;99.90
26408;DHT22;14583;43.604;1.364;2023-02-23T09:01:51;10.30;99.90
26408;DHT22;14583;43.604;1.364;2023-02-23T09:04:17;10.30;99.90
26408;DHT22;14583;43.604;1.364;2023-02-23T09:06:43;10.40;99.90
26408;DHT22;14583;43.604;1.364;2023-02-23T09:09:09;10.40;99.90
26408;DHT22;14583;43.604;1.364;2023-02-23T09:11:35;10.40;99.90
26408;DHT22;14583;43.604;1.364;2023-02-23T09:14:00;10.40;99.90
26408;DHT22;14583;43.604;1.364;2023-02-23T09:16:26;10.50;99.90
26408;DHT22;14583;43.604;1.364;2023-02-23T09:18:52;10.50;99.90
26408;DHT22;14583;43.604;1.364;2023-02-23T09:21:20;10.40;99.90
26408;DHT22;14583;43.604;1.364;2023-02-23T09:23:47;10.30;99.90
26408;DHT22;14583;43.604;1.364;2023-02-23T09:26:18;10.20;99.90
26408;DHT22;14583;43.604;1.364;2023-02-23T09:28:44;9.80;99.90
26408;DHT22;14583;43.604;1.364;2023-02-23T09:31:13;9.60;99.90
26408;DHT22;14583;43.604;1.364;2023-02-23T09:33:40;9.60;99.90
26408;DHT22;14583;43.604;1.364;2023-02-23T09:36:14;9.60;99.90
26408;DHT22;14583;43.604;1.364;2023-02-23T09:38:45;9.50;99.90
26408;DHT22;14583;43.604;1.364;2023-02-23T09:41:36;9.40;99.90
26408;DHT22;14583;43.604;1.364;2023-02-23T09:49:25;9.40;99.90
26408;DHT22;14583;43.604;1.364;2023-02-23T09:51:56;9.40;99.90
26408;DHT22;14583;43.604;1.364;2023-02-23T09:54:25;9.10;99.90
26408;DHT22;14583;43.604;1.364;2023-02-23T09:56:53;9.10;99.90
26408;DHT22;14583;43.604;1.364;2023-02-23T09:59:23;8.90;99.90
26408;DHT22;14583;43.604;1.364;2023-02-23T10:07:27;8.70;99.90
26408;DHT22;14583;43.604;1.364;2023-02-23T10:23:31;8.30;99.90
26408;DHT22;14583;43.604;1.364;2023-02-23T10:25:59;8.60;99.90
26408;DHT22;14583;43.604;1.364;2023-02-23T10:28:28;8.40;99.90
26408;DHT22;14583;43.604;1.364;2023-02-23T10:30:57;8.30;99.90
26408;DHT22;14583;43.604;1.364;2023-02-23T10:33:37;8.40;99.90
26408;DHT22;14583;43.604;1.364;2023-02-23T10:36:18;8.30;99.90
26408;DHT22;14583;43.604;1.364;2023-02-23T10:38:49;8.40;99.90
26408;DHT22;14583;43.604;1.364;2023-02-23T10:41:15;8.40;99.90
26408;DHT22;14583;43.604;1.364;2023-02-23T10:43:41;8.20;99.90
26408;DHT22;14583;43.604;1.364;2023-02-23T10:46:16;8.20;99.90
26408;DHT22;14583;43.604;1.364;2023-02-23T10:48:43;8.20;99.90
26408;DHT22;14583;43.604;1.364;2023-02-23T10:51:17;8.20;99.90
26408;DHT22;14583;43.604;1.364;2023-02-23T10:53:45;8.20;99.90
26408;DHT22;14583;43.604;1.364;2023-02-23T10:56:17;8.10;99.90
26408;DHT22;14583;43.604;1.364;2023-02-23T10:58:46;8.20;99.90
26408;DHT22;14583;43.604;1.364;2023-02-23T11:01:14;8.30;99.90
26408;DHT22;14583;43.604;1.364;2023-02-23T11:03:44;8.00;99.90
26408;DHT22;14583;43.604;1.364;2023-02-23T11:06:29;8.00;99.90
26408;DHT22;14583;43.604;1.364;2023-02-23T11:08:54;7.90;99.90
26408;DHT22;14583;43.604;1.364;2023-02-23T11:11:27;8.00;99.90
26408;DHT22;14583;43.604;1.364;2023-02-23T11:13:57;8.10;99.90
26408;DHT22;14583;43.604;1.364;2023-02-23T11:16:29;8.20;99.90
26408;DHT22;14583;43.604;1.364;2023-02-23T11:21:24;8.20;99.90
26408;DHT22;14583;43.604;1.364;2023-02-23T11:23:52;8.00;99.90
26408;DHT22;14583;43.604;1.364;2023-02-23T11:26:24;8.10;99.90
26408;DHT22;14583;43.604;1.364;2023-02-23T11:28:56;8.30;99.90
26408;DHT22;14583;43.604;1.364;2023-02-23T11:31:34;8.30;99.90
26408;DHT22;14583;43.604;1.364;2023-02-23T11:34:02;8.40;99.90
26408;DHT22;14583;43.604;1.364;2023-02-23T11:36:30;8.20;99.90
26408;DHT22;14583;43.604;1.364;2023-02-23T11:41:32;8.20;99.90
26408;DHT22;14583;43.604;1.364;2023-02-23T11:44:00;8.10;99.90
26408;DHT22;14583;43.604;1.364;2023-02-23T11:46:28;8.20;99.90
26408;DHT22;14583;43.604;1.364;2023-02-23T11:48:58;8.20;99.90
26408;DHT22;14583;43.604;1.364;2023-02-23T11:51:33;8.10;99.90
26408;DHT22;14583;43.604;1.364;2023-02-23T11:54:01;8.20;99.90
26408;DHT22;14583;43.604;1.364;2023-02-23T11:56:29;8.40;99.90
26408;DHT22;14583;43.604;1.364;2023-02-23T11:59:03;8.50;99.90
26408;DHT22;14583;43.604;1.364;2023-02-23T12:01:50;8.80;99.90
26408;DHT22;14583;43.604;1.364;2023-02-23T12:04:29;8.50;99.90
26408;DHT22;14583;43.604;1.364;2023-02-23T12:07:33;8.50;99.90
26408;DHT22;14583;43.604;1.364;2023-02-23T12:15:44;8.50;99.90
26408;DHT22;14583;43.604;1.364;2023-02-23T12:23:48;8.30;99.90
26408;DHT22;14583;43.604;1.364;2023-02-23T12:26:18;8.60;99.90
26408;DHT22;14583;43.604;1.364;2023-02-23T12:29:17;8.70;99.90
26408;DHT22;14583;43.604;1.364;2023-02-23T12:31:53;8.70;99.90
26408;DHT22;14583;43.604;1.364;2023-02-23T12:34:40;8.80;99.90
26408;DHT22;14583;43.604;1.364;2023-02-23T12:39:55;8.90;99.90
26408;DHT22;14583;43.604;1.364;2023-02-23T12:42:30;8.70;99.90
26408;DHT22;14583;43.604;1.364;2023-02-23T12:45:03;9.00;99.90
26408;DHT22;14583;43.604;1.364;2023-02-23T12:47:39;9.10;99.90
26408;DHT22;14583;43.604;1.364;2023-02-23T12:52:50;8.90;99.90
26408;DHT22;14583;43.604;1.364;2023-02-23T12:55:26;8.70;99.90
26408;DHT22;14583;43.604;1.364;2023-02-23T12:58:05;8.50;99.90
26408;DHT22;14583;43.604;1.364;2023-02-23T13:01:10;8.50;99.90
26408;DHT22;14583;43.604;1.364;2023-02-23T13:09:36;8.70;99.90
26408;DHT22;14583;43.604;1.364;2023-02-23T13:12:28;8.80;99.90
26408;DHT22;14583;43.604;1.364;2023-02-23T13:17:50;8.90;99.90
26408;DHT22;14583;43.604;1.364;2023-02-23T13:27:59;9.00;99.90
26408;DHT22;14583;43.604;1.364;2023-02-23T13:30:29;8.80;99.90
26408;DHT22;14583;43.604;1.364;2023-02-23T13:32:58;8.80;99.90
26408;DHT22;14583;43.604;1.364;2023-02-23T13:35:29;8.70;99.90
26408;DHT22;14583;43.604;1.364;2023-02-23T13:38:06;8.90;99.90
26408;DHT22;14583;43.604;1.364;2023-02-23T13:40:51;8.80;99.90
26408;DHT22;14583;43.604;1.364;2023-02-23T13:43:33;8.90;99.90
26408;DHT22;14583;43.604;1.364;2023-02-23T13:49:31;9.10;99.90
26408;DHT22;14583;43.604;1.364;2023-02-23T13:52:08;9.10;99.90
26408;DHT22;14583;43.604;1.364;2023-02-23T13:54:35;9.20;99.90
26408;DHT22;14583;43.604;1.364;2023-02-23T13:57:03;9.20;99.90
26408;DHT22;14583;43.604;1.364;2023-02-23T13:59:43;9.20;99.90
26408;DHT22;14583;43.604;1.364;2023-02-23T14:02:37;9.10;99.90
26408;DHT22;14583;43.604;1.364;2023-02-23T14:05:16;9.10;99.90
26408;DHT22;14583;43.604;1.364;2023-02-23T14:07:44;9.10;99.90
26408;DHT22;14583;43.604;1.364;2023-02-23T14:10:28;9.10;99.90
26408;DHT22;14583;43.604;1.364;2023-02-23T14:18:26;9.20;99.90
26408;DHT22;14583;43.604;1.364;2023-02-23T14:29:24;9.20;99.90
26408;DHT22;14583;43.604;1.364;2023-02-23T14:34:43;8.90;99.90
26408;DHT22;14583;43.604;1.364;2023-02-23T14:37:24;9.10;99.90
26408;DHT22;14583;43.604;1.364;2023-02-23T14:39:53;9.10;99.90
26408;DHT22;14583;43.604;1.364;2023-02-23T14:42:27;9.20;99.90
26408;DHT22;14583;43.604;1.364;2023-02-23T14:44:55;9.10;99.90
26408;DHT22;14583;43.604;1.364;2023-02-23T14:47:25;9.20;99.90
26408;DHT22;14583;43.604;1.364;2023-02-23T14:49:59;9.10;99.90
26408;DHT22;14583;43.604;1.364;2023-02-23T14:52:34;8.90;99.90
26408;DHT22;14583;43.604;1.364;2023-02-23T14:57:38;9.20;99.90
26408;DHT22;14583;43.604;1.364;2023-02-23T15:00:35;9.00;99.90
26408;DHT22;14583;43.604;1.364;2023-02-23T15:03:08;9.00;99.90
26408;DHT22;14583;43.604;1.364;2023-02-23T15:05:54;8.90;99.90
26408;DHT22;14583;43.604;1.364;2023-02-23T15:08:26;9.00;99.90
26408;DHT22;14583;43.604;1.364;2023-02-23T15:11:00;8.90;99.90
26408;DHT22;14583;43.604;1.364;2023-02-23T15:15:52;8.60;99.90
26408;DHT22;14583;43.604;1.364;2023-02-23T15:21:41;8.70;99.90
26408;DHT22;14583;43.604;1.364;2023-02-23T15:24:11;8.60;99.90
26408;DHT22;14583;43.604;1.364;2023-02-23T15:26:39;8.70;99.90
26408;DHT22;14583;43.604;1.364;2023-02-23T15:29:16;8.70;99.90
26408;DHT22;14583;43.604;1.364;2023-02-23T15:31:47;8.80;99.90
26408;DHT22;14583;43.604;1.364;2023-02-23T15:34:29;8.80;99.90
26408;DHT22;14583;43.604;1.364;2023-02-23T15:37:03;8.90;99.90
26408;DHT22;14583;43.604;1.364;2023-02-23T15:40:12;8.60;99.90
26408;DHT22;14583;43.604;1.364;2023-02-23T15:42:45;8.40;99.90
26408;DHT22;14583;43.604;1.364;2023-02-23T15:47:58;8.60;99.90
26408;DHT22;14583;43.604;1.364;2023-02-23T15:50:32;8.70;99.90
26408;DHT22;14583;43.604;1.364;2023-02-23T15:53:05;8.70;99.90
26408;DHT22;14583;43.604;1.364;2023-02-23T15:55:39;8.70;99.90
26408;DHT22;14583;43.604;1.364;2023-02-23T15:58:22;8.90;99.90
26408;DHT22;14583;43.604;1.364;2023-02-23T16:01:00;8.70;99.90
26408;DHT22;14583;43.604;1.364;2023-02-23T16:03:35;8.80;99.90
26408;DHT22;14583;43.604;1.364;2023-02-23T16:06:17;8.80;99.90
26408;DHT22;14583;43.604;1.364;2023-02-23T16:09:00;8.90;99.90
26408;DHT22;14583;43.604;1.364;2023-02-23T16:11:32;8.90;99.90
26408;DHT22;14583;43.604;1.364;2023-02-23T16:14:01;8.80;99.90
26408;DHT22;14583;43.604;1.364;2023-02-23T16:16:28;8.90;99.90
26408;DHT22;14583;43.604;1.364;2023-02-23T16:18:57;8.90;99.90
26408;DHT22;14583;43.604;1.364;2023-02-23T16:21:28;8.90;99.90
26408;DHT22;14583;43.604;1.364;2023-02-23T16:24:05;8.90;99.90
26408;DHT22;14583;43.604;1.364;2023-02-23T16:26:40;8.80;99.90
26408;DHT22;14583;43.604;1.364;2023-02-23T16:29:13;8.80;99.90
26408;DHT22;14583;43.604;1.364;2023-02-23T16:31:47;8.80;99.90
26408;DHT22;14583;43.604;1.364;2023-02-23T16:34:33;8.80;99.90
26408;DHT22;14583;43.604;1.364;2023-02-23T16:37:03;8.70;99.90
26408;DHT22;14583;43.604;1.364;2023-02-23T16:39:30;8.70;99.90
26408;DHT22;14583;43.604;1.364;2023-02-23T16:41:58;8.70;99.90
26408;DHT22;14583;43.604;1.364;2023-02-23T16:44:26;8.60;99.90
26408;DHT22;14583;43.604;1.364;2023-02-23T16:49:29;8.70;99.90
26408;DHT22;14583;43.604;1.364;2023-02-23T16:51:56;8.70;99.90
26408;DHT22;14583;43.604;1.364;2023-02-23T16:54:22;8.60;99.90
26408;DHT22;14583;43.604;1.364;2023-02-23T16:56:48;8.70;99.90
26408;DHT22;14583;43.604;1.364;2023-02-23T16:59:16;8.70;99.90
26408;DHT22;14583;43.604;1.364;2023-02-23T17:01:42;8.70;99.90
26408;DHT22;14583;43.604;1.364;2023-02-23T17:04:12;8.60;99.90
26408;DHT22;14583;43.604;1.364;2023-02-23T17:06:40;8.60;99.90
26408;DHT22;14583;43.604;1.364;2023-02-23T17:09:08;8.60;99.90
26408;DHT22;14583;43.604;1.364;2023-02-23T17:11:34;8.70;99.90
26408;DHT22;14583;43.604;1.364;2023-02-23T17:13:59;8.60;99.90
26408;DHT22;14583;43.604;1.364;2023-02-23T17:16:25;8.50;99.90
26408;DHT22;14583;43.604;1.364;2023-02-23T17:18:51;8.60;99.90
26408;DHT22;14583;43.604;1.364;2023-02-23T17:21:18;8.60;99.90
26408;DHT22;14583;43.604;1.364;2023-02-23T17:23:50;8.60;99.90
26408;DHT22;14583;43.604;1.364;2023-02-23T17:26:19;8.50;99.90
26408;DHT22;14583;43.604;1.364;2023-02-23T17:28:45;8.50;99.90
26408;DHT22;14583;43.604;1.364;2023-02-23T17:31:11;8.50;99.90
26408;DHT22;14583;43.604;1.364;2023-02-23T17:33:39;8.50;99.90
26408;DHT22;14583;43.604;1.364;2023-02-23T17:36:08;8.40;99.90
26408;DHT22;14583;43.604;1.364;2023-02-23T17:38:34;8.50;99.90
26408;DHT22;14583;43.604;1.364;2023-02-23T17:41:01;8.50;99.90
26408;DHT22;14583;43.604;1.364;2023-02-23T17:43:27;8.50;99.90
26408;DHT22;14583;43.604;1.364;2023-02-23T17:45:52;8.50;99.90
26408;DHT22;14583;43.604;1.364;2023-02-23T17:48:20;8.50;99.90
26408;DHT22;14583;43.604;1.364;2023-02-23T17:50:46;8.50;99.90
26408;DHT22;14583;43.604;1.364;2023-02-23T17:53:11;8.40;99.90
26408;DHT22;14583;43.604;1.364;2023-02-23T17:55:37;8.50;99.90
26408;DHT22;14583;43.604;1.364;2023-02-23T17:58:03;8.40;99.90
26408;DHT22;14583;43.604;1.364;2023-02-23T18:00:29;8.40;99.90
26408;DHT22;14583;43.604;1.364;2023-02-23T18:02:54;8.50;99.90
26408;DHT22;14583;43.604;1.364;2023-02-23T18:05:20;8.50;99.90
26408;DHT22;14583;43.604;1.364;2023-02-23T18:07:46;8.50;99.90
26408;DHT22;14583;43.604;1.364;2023-02-23T18:10:12;8.50;99.90
26408;DHT22;14583;43.604;1.364;2023-02-23T18:12:39;8.50;99.90
26408;DHT22;14583;43.604;1.364;2023-02-23T18:15:06;8.40;99.90
26408;DHT22;14583;43.604;1.364;2023-02-23T18:17:32;8.40;99.90
26408;DHT22;14583;43.604;1.364;2023-02-23T18:19:59;8.50;99.90
26408;DHT22;14583;43.604;1.364;2023-02-23T18:22:25;8.50;99.90
26408;DHT22;14583;43.604;1.364;2023-02-23T18:24:50;8.50;99.90